createdAt,value
2023-03-05T00:01:34.426Z,101910.84
2023-03-05T00:04:03.742Z,101905.97
2023-03-05T00:06:32.914Z,101905.97
2023-03-05T00:09:01.235Z,101909.66
2023-03-05T00:11:31.068Z,101910.87
2023-03-05T00:13:59.784Z,101901.16
2023-03-05T00:16:29.411Z,101908.48
2023-03-05T00:18:58.624Z,101912.57
2023-03-05T00:21:30.705Z,101907.70
2023-03-05T00:23:59.683Z,101912.93
2023-03-05T00:26:28.564Z,101913.68
2023-03-05T00:28:58.405Z,101903.61
2023-03-05T00:31:31.439Z,101910.48
2023-03-05T00:34:02.229Z,101907.27
2023-03-05T00:36:30.361Z,101909.66
2023-03-05T00:38:58.868Z,101897.56
2023-03-05T00:41:27.381Z,101895.11
2023-03-05T00:43:55.310Z,101892.30
2023-03-05T00:46:24.176Z,101895.60
2023-03-05T00:48:51.800Z,101896.02
2023-03-05T00:51:19.538Z,101889.19
2023-03-05T00:53:47.348Z,101887.98
2023-03-05T00:56:15.070Z,101888.83
2023-03-05T00:58:42.837Z,101882.36
2023-03-05T01:01:10.947Z,101879.51
2023-03-05T01:03:38.648Z,101888.80
2023-03-05T01:06:09.137Z,101880.76
2023-03-05T01:08:37.479Z,101878.73
2023-03-05T01:11:06.633Z,101875.52
2023-03-05T01:13:34.382Z,101869.05
2023-03-05T01:16:02.554Z,101860.55
2023-03-05T01:18:30.304Z,101861.79
2023-03-05T01:20:58.157Z,101864.60
2023-03-05T01:23:25.803Z,101854.89
2023-03-05T01:25:58.215Z,101856.88
2023-03-05T01:28:27.043Z,101852.05
2023-03-05T01:30:54.688Z,101849.63
2023-03-05T01:33:22.392Z,101841.13
2023-03-05T01:35:50.907Z,101847.17
2023-03-05T01:38:19.269Z,101833.47
2023-03-05T01:40:47.028Z,101834.65
2023-03-05T01:43:14.594Z,101838.70
2023-03-05T01:46:19.974Z,101830.66
2023-03-05T01:48:52.015Z,101830.66
2023-03-05T01:51:21.338Z,101825.39
2023-03-05T01:53:49.178Z,101829.80
2023-03-05T01:56:18.001Z,101826.15
2023-03-05T01:58:46.536Z,101817.71
2023-03-05T02:01:14.454Z,101819.70
2023-03-05T02:03:43.457Z,101814.41
2023-03-05T02:06:11.533Z,101813.16
2023-03-05T02:08:39.239Z,101814.41
2023-03-05T02:11:07.278Z,101812.41
2023-03-05T02:13:39.724Z,101808.75
2023-03-05T02:16:08.461Z,101804.73
2023-03-05T02:18:36.434Z,101803.55
2023-03-05T02:21:13.088Z,101795.08
2023-03-05T02:23:41.390Z,101796.26
2023-03-05T02:26:11.811Z,101794.66
2023-03-05T02:28:43.822Z,101787.79
2023-03-05T02:31:15.962Z,101786.97
2023-03-05T02:33:43.738Z,101779.25
2023-03-05T02:36:13.104Z,101779.61
2023-03-05T02:38:42.402Z,101771.50
2023-03-05T02:41:10.752Z,101769.51
2023-03-05T02:43:38.552Z,101769.09
2023-03-05T02:46:07.205Z,101768.66
2023-03-05T02:48:35.043Z,101761.79
2023-03-05T02:51:04.460Z,101762.18
2023-03-05T02:53:32.166Z,101754.92
2023-03-05T02:55:59.981Z,101758.52
2023-03-05T02:58:27.685Z,101752.87
2023-03-05T03:00:55.427Z,101750.80
2023-03-05T03:03:23.228Z,101747.56
2023-03-05T03:05:51.019Z,101738.67
2023-03-05T03:08:18.648Z,101743.12
2023-03-05T03:10:46.251Z,101733.41
2023-03-05T03:13:13.988Z,101728.96
2023-03-05T03:15:41.632Z,101726.51
2023-03-05T03:18:09.327Z,101724.09
2023-03-05T03:20:40.336Z,101718.40
2023-03-05T03:23:08.517Z,101721.60
2023-03-05T03:25:36.303Z,101718.76
2023-03-05T03:28:04.149Z,101712.31
2023-03-05T03:30:31.860Z,101715.13
2023-03-05T03:32:59.606Z,101719.58
2023-03-05T03:35:27.272Z,101708.20
2023-03-05T03:37:54.915Z,101712.28
2023-03-05T03:40:22.915Z,101707.41
2023-03-05T03:42:53.222Z,101709.02
2023-03-05T03:45:23.261Z,101699.79
2023-03-05T03:47:51.502Z,101705.48
2023-03-05T03:50:19.925Z,101706.33
2023-03-05T03:52:47.645Z,101698.71
2023-03-05T03:55:15.419Z,101704.40
2023-03-05T03:57:44.612Z,101692.66
2023-03-05T04:00:13.040Z,101697.53
2023-03-05T04:02:40.955Z,101695.09
2023-03-05T04:05:09.290Z,101690.21
2023-03-05T04:07:37.030Z,101696.26
2023-03-05T04:10:05.654Z,101693.84
2023-03-05T04:12:33.821Z,101696.29
2023-03-05T04:15:01.598Z,101695.48
2023-03-05T04:17:29.324Z,101689.42
2023-03-05T04:19:57.087Z,101689.00
2023-03-05T04:22:24.799Z,101689.00
2023-03-05T04:24:52.536Z,101685.37
2023-03-05T04:27:20.304Z,101684.59
2023-03-05T04:29:48.051Z,101674.13
2023-03-05T04:32:15.866Z,101681.41
2023-03-05T04:34:43.538Z,101681.84
2023-03-05T04:37:11.224Z,101681.91
2023-03-05T04:39:39.385Z,101679.84
2023-03-05T04:42:07.342Z,101671.38
2023-03-05T04:44:35.140Z,101669.28
2023-03-05T04:47:02.807Z,101674.16
2023-03-05T04:49:31.013Z,101670.52
2023-03-05T04:51:58.777Z,101663.98
2023-03-05T04:54:26.550Z,101664.80
2023-03-05T04:56:54.238Z,101665.20
2023-03-05T04:59:21.916Z,101655.22
2023-03-05T05:01:49.673Z,101651.95
2023-03-05T05:04:17.445Z,101650.80
2023-03-05T05:06:45.120Z,101643.55
2023-03-05T05:09:12.860Z,101645.58
2023-03-05T05:11:41.213Z,101650.52
2023-03-05T05:14:08.979Z,101645.28
2023-03-05T05:16:36.753Z,101647.05
2023-03-05T05:19:04.914Z,101643.41
2023-03-05T05:21:32.740Z,101639.00
2023-03-05T05:24:00.390Z,101641.39
2023-03-05T05:26:29.965Z,101643.84
2023-03-05T05:28:57.682Z,101640.24
2023-03-05T05:31:25.393Z,101639.88
2023-03-05T05:33:53.179Z,101633.84
2023-03-05T05:36:23.313Z,101640.27
2023-03-05T05:38:51.323Z,101638.67
2023-03-05T05:41:20.231Z,101641.52
2023-03-05T05:43:48.108Z,101637.50
2023-03-05T05:46:18.840Z,101638.67
2023-03-05T05:48:47.604Z,101633.87
2023-03-05T05:51:23.824Z,101633.90
2023-03-05T05:53:51.795Z,101635.50
2023-03-05T05:56:20.298Z,101631.05
2023-03-05T05:58:50.095Z,101624.58
2023-03-05T06:01:23.813Z,101629.48
2023-03-05T06:03:51.794Z,101624.68
2023-03-05T06:06:21.740Z,101620.23
2023-03-05T06:08:50.098Z,101631.94
2023-03-05T06:11:19.399Z,101633.57
2023-03-05T06:13:48.529Z,101634.39
2023-03-05T06:16:19.442Z,101637.23
2023-03-05T06:18:47.616Z,101640.05
2023-03-05T06:21:17.386Z,101640.90
2023-03-05T06:23:46.443Z,101637.66
2023-03-05T06:26:17.409Z,101633.21
2023-03-05T06:28:45.517Z,101639.27
2023-03-05T06:31:16.043Z,101635.24
2023-03-05T06:33:44.486Z,101627.95
2023-03-05T06:36:16.352Z,101627.91
2023-03-05T06:38:44.626Z,101619.02
2023-03-05T06:41:14.861Z,101620.23
2023-03-05T06:43:45.041Z,101619.84
2023-03-05T06:46:24.286Z,101619.02
2023-03-05T06:48:52.908Z,101617.42
2023-03-05T06:51:23.590Z,101624.68
2023-03-05T06:53:52.314Z,101627.88
2023-03-05T06:56:20.993Z,101619.45
2023-03-05T06:58:50.512Z,101630.34
2023-03-05T07:01:19.072Z,101635.96
2023-03-05T07:03:50.953Z,101629.45
2023-03-05T07:06:19.299Z,101627.00
2023-03-05T07:08:47.628Z,101634.26
2023-03-05T07:11:21.055Z,101627.75
2023-03-05T07:13:49.450Z,101625.66
2023-03-05T07:16:23.325Z,101622.81
2023-03-05T07:18:51.048Z,101629.26
2023-03-05T07:21:24.148Z,101625.98
2023-03-05T07:23:54.695Z,101629.23
2023-03-05T07:26:23.336Z,101616.24
2023-03-05T07:28:51.030Z,101618.27
2023-03-05T07:31:21.936Z,101616.24
2023-03-05T07:33:51.379Z,101619.48
2023-03-05T07:36:19.569Z,101623.47
2023-03-05T07:38:47.552Z,101620.23
2023-03-05T07:41:22.480Z,101614.48
2023-03-05T07:43:52.237Z,101624.55
2023-03-05T07:46:22.449Z,101616.90
2023-03-05T07:48:50.306Z,101612.05
2023-03-05T07:51:20.953Z,101613.23
2023-03-05T07:53:50.318Z,101608.79
2023-03-05T07:56:26.662Z,101616.08
2023-03-05T07:58:54.580Z,101610.39
2023-03-05T08:01:22.449Z,101602.31
2023-03-05T08:03:50.327Z,101603.09
2023-03-05T08:06:18.150Z,101603.09
2023-03-05T08:08:45.917Z,101604.70
2023-03-05T08:11:16.799Z,101600.58
2023-03-05T08:13:46.095Z,101596.13
2023-03-05T08:16:20.091Z,101588.35
2023-03-05T08:18:48.534Z,101590.77
2023-03-05T08:21:28.070Z,101579.72
2023-03-05T08:23:59.618Z,101580.99
2023-03-05T08:26:30.556Z,101571.25
2023-03-05T08:28:59.396Z,101568.34
2023-03-05T08:31:28.809Z,101564.97
2023-03-05T08:33:58.336Z,101570.82
2023-03-05T08:36:26.136Z,101572.33
2023-03-05T08:38:53.919Z,101568.86
2023-03-05T08:41:21.717Z,101577.46
2023-03-05T08:43:49.932Z,101578.96
2023-03-05T08:46:18.236Z,101571.80
2023-03-05T08:48:46.106Z,101576.15
2023-03-05T08:51:16.222Z,101581.19
2023-03-05T08:53:45.696Z,101575.04
2023-03-05T08:56:14.524Z,101577.13
2023-03-05T08:58:42.297Z,101572.13
2023-03-05T09:01:10.212Z,101575.56
2023-03-05T09:03:38.258Z,101562.91
2023-03-05T09:06:09.314Z,101562.02
2023-03-05T09:08:37.488Z,101566.84
2023-03-05T09:11:09.356Z,101555.06
2023-03-05T09:13:37.730Z,101544.53
2023-03-05T09:16:08.524Z,101552.64
2023-03-05T09:18:37.774Z,101551.04
2023-03-05T09:21:07.091Z,101543.52
2023-03-05T09:23:35.148Z,101543.26
2023-03-05T09:26:03.536Z,101538.68
2023-03-05T09:28:31.258Z,101539.04
2023-03-05T09:30:59.018Z,101531.09
2023-03-05T09:33:26.753Z,101527.07
2023-03-05T09:35:54.574Z,101523.21
2023-03-05T09:38:22.534Z,101523.93
2023-03-05T09:41:19.772Z,101518.77
2023-03-05T09:44:24.493Z,101520.56
2023-03-05T09:47:02.653Z,101514.55
2023-03-05T09:50:00.037Z,101518.44
2023-03-05T09:52:37.814Z,101524.84
2023-03-05T09:55:12.378Z,101523.90
2023-03-05T09:57:48.105Z,101511.63
2023-03-05T10:00:35.535Z,101516.93
2023-03-05T10:03:08.290Z,101513.37
2023-03-05T10:05:55.111Z,101505.16
2023-03-05T10:08:29.709Z,101503.39
2023-03-05T10:10:58.201Z,101502.58
2023-03-05T10:13:31.545Z,101500.65
2023-03-05T10:16:27.695Z,101502.31
2023-03-05T10:19:14.149Z,101492.47
2023-03-05T10:21:54.628Z,101487.93
2023-03-05T10:24:48.317Z,101485.77
2023-03-05T10:27:22.341Z,101480.08
2023-03-05T10:30:05.092Z,101483.74
2023-03-05T10:32:57.160Z,101481.26
2023-03-05T10:35:33.794Z,101477.63
2023-03-05T10:38:32.797Z,101466.61
2023-03-05T10:41:09.484Z,101466.15
2023-03-05T10:43:37.216Z,101470.37
2023-03-05T10:46:06.235Z,101461.05
2023-03-05T10:48:42.716Z,101455.26
2023-03-05T10:51:16.747Z,101464.16
2023-03-05T10:53:54.289Z,101458.89
2023-03-05T10:56:25.481Z,101450.13
2023-03-05T10:58:55.759Z,101446.50
2023-03-05T11:01:27.258Z,101437.14
2023-03-05T11:04:00.595Z,101433.61
2023-03-05T11:06:35.777Z,101438.38
2023-03-05T11:09:21.800Z,101425.30
2023-03-05T11:12:05.589Z,101423.25
2023-03-05T11:14:35.079Z,101421.91
2023-03-05T11:17:23.778Z,101402.41
2023-03-05T11:19:51.479Z,101401.66
2023-03-05T11:22:24.414Z,101399.51
2023-03-05T11:25:20.174Z,101395.87
2023-03-05T11:27:55.781Z,101378.68
2023-03-05T11:30:30.162Z,101375.70
2023-03-05T11:33:23.721Z,101369.59
2023-03-05T11:35:53.509Z,101360.95
2023-03-05T11:38:27.736Z,101364.35
2023-03-05T11:40:58.341Z,101360.27
2023-03-05T11:43:27.384Z,101350.72
2023-03-05T11:46:00.684Z,101355.03
2023-03-05T11:48:36.010Z,101348.46
2023-03-05T11:51:09.624Z,101345.62
2023-03-05T11:53:39.995Z,101341.40
2023-03-05T11:56:22.118Z,101338.88
2023-03-05T11:59:00.436Z,101332.73
2023-03-05T12:01:32.928Z,101330.12
2023-03-05T12:04:01.554Z,101331.59
2023-03-05T12:06:53.082Z,101325.90
2023-03-05T12:09:39.492Z,101319.75
2023-03-05T12:12:33.383Z,101305.63
2023-03-05T12:15:04.078Z,101307.75
2023-03-05T12:17:38.584Z,101309.25
2023-03-05T12:20:24.669Z,101309.35
2023-03-05T12:22:52.711Z,101302.65
2023-03-05T12:25:26.972Z,101294.21
2023-03-05T12:27:55.062Z,101289.30
2023-03-05T12:30:43.574Z,101279.76
2023-03-05T12:33:39.195Z,101284.53
2023-03-05T12:36:22.381Z,101277.50
2023-03-05T12:38:57.425Z,101273.41
2023-03-05T12:41:27.581Z,101278.77
2023-03-05T12:44:07.923Z,101274.56
2023-03-05T12:46:45.377Z,101267.70
2023-03-05T12:49:18.985Z,101258.93
2023-03-05T12:51:52.249Z,101259.98
2023-03-05T12:54:23.069Z,101254.84
2023-03-05T12:56:53.291Z,101254.05
2023-03-05T12:59:24.411Z,101248.56
2023-03-05T13:02:01.684Z,101243.00
2023-03-05T13:04:34.855Z,101238.88
2023-03-05T13:07:06.996Z,101237.09
2023-03-05T13:09:37.515Z,101229.11
2023-03-05T13:12:11.315Z,101232.18
2023-03-05T13:14:43.024Z,101228.45
2023-03-05T13:17:32.151Z,101227.50
2023-03-05T13:20:01.359Z,101217.14
2023-03-05T13:22:30.855Z,101214.39
2023-03-05T13:25:24.774Z,101219.03
2023-03-05T13:27:52.536Z,101216.09
2023-03-05T13:30:27.268Z,101208.90
2023-03-05T13:33:04.192Z,101215.50
2023-03-05T13:35:35.650Z,101208.41
2023-03-05T13:38:03.399Z,101201.12
2023-03-05T13:40:33.973Z,101206.48
2023-03-05T13:43:21.757Z,101201.80
2023-03-05T13:45:56.077Z,101202.95
2023-03-05T13:48:24.215Z,101201.51
2023-03-05T13:50:58.270Z,101208.44
2023-03-05T13:53:29.433Z,101201.87
2023-03-05T13:56:09.094Z,101195.20
2023-03-05T13:58:45.626Z,101184.66
2023-03-05T14:01:31.245Z,101189.02
2023-03-05T14:04:13.805Z,101177.99
2023-03-05T14:07:08.650Z,101180.88
2023-03-05T14:09:42.075Z,101176.49
2023-03-05T14:12:25.300Z,101170.18
2023-03-05T14:14:53.017Z,101174.46
2023-03-05T14:17:38.182Z,101170.21
2023-03-05T14:20:20.716Z,101170.21
2023-03-05T14:22:52.182Z,101160.20
2023-03-05T14:25:38.328Z,101163.05
2023-03-05T14:28:29.546Z,101151.02
2023-03-05T14:30:58.395Z,101146.31
2023-03-05T14:33:32.854Z,101148.73
2023-03-05T14:36:03.095Z,101143.34
2023-03-05T14:38:34.810Z,101141.44
2023-03-05T14:41:36.915Z,101145.10
2023-03-05T14:44:12.695Z,101137.31
2023-03-05T14:46:40.603Z,101129.08
2023-03-05T14:49:08.590Z,101119.89
2023-03-05T14:51:43.640Z,101117.01
2023-03-05T14:54:39.161Z,101121.00
2023-03-05T14:57:07.315Z,101110.66
2023-03-05T14:59:35.094Z,101113.38
2023-03-05T15:02:02.920Z,101105.14
2023-03-05T15:04:30.893Z,101105.89
2023-03-05T15:06:58.576Z,101100.95
2023-03-05T15:09:28.062Z,101108.87
2023-03-05T15:11:55.779Z,101104.23
2023-03-05T15:14:23.548Z,101094.38
2023-03-05T15:16:51.485Z,101094.35
2023-03-05T15:19:19.492Z,101094.02
2023-03-05T15:21:47.186Z,101090.82
2023-03-05T15:24:15.881Z,101087.77
2023-03-05T15:26:43.668Z,101083.33
2023-03-05T15:29:11.398Z,101092.06
2023-03-05T15:31:41.579Z,101087.91
2023-03-05T15:34:09.427Z,101083.72
2023-03-05T15:36:37.148Z,101073.71
2023-03-05T15:39:04.990Z,101073.39
2023-03-05T15:41:32.901Z,101067.37
2023-03-05T15:44:00.642Z,101071.95
2023-03-05T15:46:28.582Z,101064.49
2023-03-05T15:48:56.572Z,101061.62
2023-03-05T15:51:24.359Z,101056.19
2023-03-05T15:53:52.137Z,101059.46
2023-03-05T15:56:20.679Z,101050.37
2023-03-05T15:58:50.398Z,101045.76
2023-03-05T16:01:20.584Z,101043.40
2023-03-05T16:03:48.598Z,101040.79
2023-03-05T16:06:21.482Z,101044.09
2023-03-05T16:08:49.936Z,101046.18
2023-03-05T16:11:19.005Z,101036.30
2023-03-05T16:13:46.832Z,101038.34
2023-03-05T16:16:15.093Z,101039.28
2023-03-05T16:18:46.025Z,101035.16
2023-03-05T16:21:15.080Z,101030.09
2023-03-05T16:23:42.911Z,101030.09
2023-03-05T16:26:11.740Z,101021.52
2023-03-05T16:28:41.092Z,101019.47
2023-03-05T16:31:08.916Z,101024.70
2023-03-05T16:33:36.885Z,101026.30
2023-03-05T16:36:22.245Z,101023.13
2023-03-05T16:38:51.606Z,101010.60
2023-03-05T16:41:20.790Z,101011.65
2023-03-05T16:43:49.431Z,101011.45
2023-03-05T16:46:17.763Z,101010.93
2023-03-05T16:48:46.004Z,101007.89
2023-03-05T16:51:14.391Z,101008.12
2023-03-05T16:53:42.533Z,101012.37
2023-03-05T16:56:11.350Z,101001.55
2023-03-05T16:58:41.725Z,101006.91
2023-03-05T17:01:14.763Z,101003.41
2023-03-05T17:03:44.583Z,101004.33
2023-03-05T17:06:14.766Z,101000.80
2023-03-05T17:08:44.367Z,101005.05
2023-03-05T17:11:12.720Z,101014.16
2023-03-05T17:13:41.780Z,101008.05
2023-03-05T17:16:11.048Z,101010.21
2023-03-05T17:18:39.422Z,101009.85
2023-03-05T17:21:08.905Z,101016.81
2023-03-05T17:23:38.221Z,101013.32
2023-03-05T17:26:08.906Z,101012.60
2023-03-05T17:28:37.215Z,101015.12
2023-03-05T17:31:05.684Z,101009.20
2023-03-05T17:33:33.944Z,101018.29
2023-03-05T17:36:03.036Z,101013.84
2023-03-05T17:38:31.539Z,101014.43
2023-03-05T17:40:59.288Z,101013.38
2023-03-05T17:43:26.989Z,101017.50
2023-03-05T17:45:54.811Z,101007.95
2023-03-05T17:48:22.495Z,101012.96
2023-03-05T17:50:50.244Z,101011.95
2023-03-05T17:53:18.413Z,101013.41
2023-03-05T17:55:46.091Z,101016.26
2023-03-05T17:58:13.915Z,101018.74
2023-03-05T18:00:41.819Z,101018.38
2023-03-05T18:03:09.632Z,101018.84
2023-03-05T18:05:37.643Z,101010.54
2023-03-05T18:08:05.767Z,101006.55
2023-03-05T18:10:34.288Z,101007.14
2023-03-05T18:13:02.154Z,101003.60
2023-03-05T18:15:30.837Z,101009.39
2023-03-05T18:17:59.689Z,100998.93
2023-03-05T18:20:34.679Z,101002.23
2023-03-05T18:23:03.594Z,101001.91
2023-03-05T18:25:32.208Z,101009.59
2023-03-05T18:28:05.511Z,101006.87
2023-03-05T18:30:33.859Z,101002.43
2023-03-05T18:33:02.296Z,101007.30
2023-03-05T18:35:30.396Z,100997.66
2023-03-05T18:37:58.780Z,101000.04
2023-03-05T18:40:29.262Z,100991.08
2023-03-05T18:42:57.128Z,100999.16
2023-03-05T18:45:24.988Z,100989.84
2023-03-05T18:47:55.238Z,100986.21
2023-03-05T18:50:25.468Z,100982.91
2023-03-05T18:52:53.345Z,100983.82
2023-03-05T18:55:25.100Z,100980.98
2023-03-05T18:57:53.032Z,100975.38
2023-03-05T19:00:24.373Z,100972.67
2023-03-05T19:02:53.061Z,100980.84
2023-03-05T19:05:21.655Z,100979.15
2023-03-05T19:07:49.903Z,100974.73
2023-03-05T19:10:18.821Z,100975.84
2023-03-05T19:12:56.470Z,100968.23
2023-03-05T19:15:24.823Z,100969.56
2023-03-05T19:17:52.755Z,100964.01
2023-03-05T19:20:20.686Z,100963.68
2023-03-05T19:22:51.854Z,100970.94
2023-03-05T19:25:20.091Z,100965.74
2023-03-05T19:27:47.859Z,100966.16
2023-03-05T19:30:17.392Z,100960.84
2023-03-05T19:32:48.247Z,100964.92
2023-03-05T19:35:17.467Z,100962.41
2023-03-05T19:37:47.024Z,100967.30
2023-03-05T19:40:15.871Z,100956.16
2023-03-05T19:42:43.912Z,100964.01
2023-03-05T19:45:12.137Z,100958.87
2023-03-05T19:47:39.882Z,100962.27
2023-03-05T19:50:08.477Z,100954.75
2023-03-05T19:52:36.300Z,100952.46
2023-03-05T19:55:05.145Z,100953.02
2023-03-05T19:57:33.495Z,100954.23
2023-03-05T20:00:01.330Z,100950.80
2023-03-05T20:02:29.451Z,100953.38
2023-03-05T20:04:57.297Z,100956.23
2023-03-05T20:07:25.122Z,100953.87
2023-03-05T20:09:54.297Z,100957.47
2023-03-05T20:12:23.397Z,100957.47
2023-03-05T20:14:51.250Z,100955.08
2023-03-05T20:17:19.118Z,100952.95
2023-03-05T20:19:46.855Z,100946.02
2023-03-05T20:22:14.562Z,100944.45
2023-03-05T20:24:42.360Z,100944.88
2023-03-05T20:27:10.050Z,100937.20
2023-03-05T20:29:37.795Z,100945.79
2023-03-05T20:32:05.739Z,100944.71
2023-03-05T20:34:33.575Z,100947.79
2023-03-05T20:37:01.286Z,100935.63
2023-03-05T20:39:28.952Z,100939.97
2023-03-05T20:41:56.677Z,100938.63
2023-03-05T20:44:24.495Z,100939.77
2023-03-05T20:47:03.764Z,100934.77
2023-03-05T20:49:31.697Z,100934.34
2023-03-05T20:51:59.309Z,100931.96
2023-03-05T20:54:28.391Z,100926.37
2023-03-05T20:56:56.015Z,100933.95
2023-03-05T20:59:24.457Z,100932.77
2023-03-05T21:01:52.195Z,100925.19
2023-03-05T21:04:20.077Z,100922.77
2023-03-05T21:06:48.832Z,100924.83
2023-03-05T21:09:16.632Z,100922.54
2023-03-05T21:11:44.398Z,100920.52
2023-03-05T21:14:12.332Z,100917.31
2023-03-05T21:16:40.302Z,100916.52
2023-03-05T21:19:07.991Z,100910.28
2023-03-05T21:21:35.702Z,100913.26
2023-03-05T21:24:03.396Z,100916.07
2023-03-05T21:26:31.025Z,100917.67
2023-03-05T21:28:58.880Z,100907.01
2023-03-05T21:31:26.703Z,100908.61
2023-03-05T21:33:54.435Z,100912.34
2023-03-05T21:36:22.301Z,100907.11
2023-03-05T21:38:50.687Z,100903.12
2023-03-05T21:41:19.278Z,100901.55
2023-03-05T21:43:47.306Z,100891.09
2023-03-05T21:46:15.583Z,100896.52
2023-03-05T21:48:43.463Z,100895.27
2023-03-05T21:51:13.728Z,100893.34
2023-03-05T21:53:41.480Z,100896.09
2023-03-05T21:56:19.051Z,100883.04
2023-03-05T21:58:46.945Z,100882.59
2023-03-05T22:01:17.284Z,100885.33
2023-03-05T22:03:45.087Z,100880.45
2023-03-05T22:06:15.992Z,100873.10
2023-03-05T22:08:44.069Z,100866.56
2023-03-05T22:11:14.313Z,100870.52
2023-03-05T22:13:42.200Z,100865.64
2023-03-05T22:16:13.402Z,100872.09
2023-03-05T22:18:41.110Z,100869.73
2023-03-05T22:21:19.346Z,100872.67
2023-03-05T22:23:47.407Z,100867.41
2023-03-05T22:26:15.289Z,100874.24
2023-03-05T22:28:43.755Z,100866.07
2023-03-05T22:31:11.851Z,100868.00
2023-03-05T22:33:39.568Z,100866.43
2023-03-05T22:36:11.910Z,100854.76
2023-03-05T22:38:40.083Z,100856.32
2023-03-05T22:41:10.163Z,100851.13
2023-03-05T22:43:38.682Z,100857.66
2023-03-05T22:46:15.795Z,100851.74
2023-03-05T22:48:44.349Z,100844.98
2023-03-05T22:51:13.277Z,100847.01
2023-03-05T22:53:41.555Z,100843.34
2023-03-05T22:56:11.795Z,100843.80
2023-03-05T22:58:39.835Z,100839.29
2023-03-05T23:01:15.663Z,100839.29
2023-03-05T23:03:43.848Z,100834.41
2023-03-05T23:06:11.818Z,100838.50
2023-03-05T23:08:39.593Z,100828.82
2023-03-05T23:11:12.279Z,100825.12
2023-03-05T23:13:41.650Z,100834.41
2023-03-05T23:16:10.581Z,100820.23
2023-03-05T23:18:38.468Z,100820.23
2023-03-05T23:21:06.421Z,100811.62
2023-03-05T23:23:34.495Z,100811.91
2023-03-05T23:26:02.372Z,100815.65
2023-03-05T23:28:30.090Z,100813.81
2023-03-05T23:30:58.886Z,100806.13
2023-03-05T23:33:26.884Z,100808.98
2023-03-05T23:36:00.241Z,100809.07
2023-03-05T23:38:30.618Z,100805.97
2023-03-05T23:41:01.613Z,100811.66
2023-03-05T23:43:30.376Z,100798.25
2023-03-05T23:45:58.334Z,100797.82
2023-03-05T23:48:27.548Z,100805.09
2023-03-05T23:50:56.211Z,100799.39
2023-03-05T23:53:27.241Z,100806.33
2023-03-05T23:55:56.492Z,100805.09
2023-03-05T23:58:24.758Z,100795.66
